sensor_id;sensor_type;location;lat;lon;timestamp;P1;durP1;ratioP1;P2;durP2;ratioP2
20739;SDS011;10530;49.968;19.844;2022-07-22T00:00:32;8.30;;;3.60;;
20739;SDS011;10530;49.968;19.844;2022-07-22T00:05:35;6.75;;;3.42;;
20739;SDS011;10530;49.968;19.844;2022-07-22T00:10:38;11.52;;;4.13;;
20739;SDS011;10530;49.968;19.844;2022-07-22T00:15:41;7.57;;;4.03;;
20739;SDS011;10530;49.968;19.844;2022-07-22T00:20:43;10.70;;;4.20;;
20739;SDS011;10530;49.968;19.844;2022-07-22T00:25:46;8.53;;;4.20;;
20739;SDS011;10530;49.968;19.844;2022-07-22T00:30:49;9.93;;;4.03;;
20739;SDS011;10530;49.968;19.844;2022-07-22T00:35:55;8.18;;;4.03;;
20739;SDS011;10530;49.968;19.844;2022-07-22T00:40:58;9.20;;;4.20;;
20739;SDS011;10530;49.968;19.844;2022-07-22T00:46:01;8.48;;;3.97;;
20739;SDS011;10530;49.968;19.844;2022-07-22T00:51:04;9.17;;;3.80;;
20739;SDS011;10530;49.968;19.844;2022-07-22T00:56:07;10.27;;;4.60;;
20739;SDS011;10530;49.968;19.844;2022-07-22T01:01:09;8.32;;;4.03;;
20739;SDS011;10530;49.968;19.844;2022-07-22T01:06:12;8.20;;;4.07;;
20739;SDS011;10530;49.968;19.844;2022-07-22T01:11:17;8.90;;;4.20;;
20739;SDS011;10530;49.968;19.844;2022-07-22T01:16:24;10.23;;;4.07;;
20739;SDS011;10530;49.968;19.844;2022-07-22T01:21:27;8.88;;;4.10;;
20739;SDS011;10530;49.968;19.844;2022-07-22T01:26:30;10.30;;;4.05;;
20739;SDS011;10530;49.968;19.844;2022-07-22T01:31:35;9.80;;;4.03;;
20739;SDS011;10530;49.968;19.844;2022-07-22T01:36:38;9.18;;;4.15;;
20739;SDS011;10530;49.968;19.844;2022-07-22T01:41:42;8.83;;;4.40;;
20739;SDS011;10530;49.968;19.844;2022-07-22T01:46:46;12.00;;;4.30;;
20739;SDS011;10530;49.968;19.844;2022-07-22T01:51:51;10.20;;;5.28;;
20739;SDS011;10530;49.968;19.844;2022-07-22T01:56:54;13.00;;;4.90;;
20739;SDS011;10530;49.968;19.844;2022-07-22T02:01:57;13.38;;;5.10;;
20739;SDS011;10530;49.968;19.844;2022-07-22T02:07:00;10.33;;;5.23;;
20739;SDS011;10530;49.968;19.844;2022-07-22T02:12:04;12.07;;;5.25;;
20739;SDS011;10530;49.968;19.844;2022-07-22T02:17:13;10.85;;;4.80;;
20739;SDS011;10530;49.968;19.844;2022-07-22T02:22:17;10.40;;;5.00;;
20739;SDS011;10530;49.968;19.844;2022-07-22T02:27:21;12.60;;;4.93;;
20739;SDS011;10530;49.968;19.844;2022-07-22T02:32:25;10.57;;;4.53;;
20739;SDS011;10530;49.968;19.844;2022-07-22T02:37:28;10.05;;;4.50;;
20739;SDS011;10530;49.968;19.844;2022-07-22T02:42:32;9.18;;;5.05;;
20739;SDS011;10530;49.968;19.844;2022-07-22T02:47:35;11.50;;;5.10;;
20739;SDS011;10530;49.968;19.844;2022-07-22T02:52:49;11.13;;;4.95;;
20739;SDS011;10530;49.968;19.844;2022-07-22T02:57:53;10.63;;;4.63;;
20739;SDS011;10530;49.968;19.844;2022-07-22T03:02:56;10.80;;;4.68;;
20739;SDS011;10530;49.968;19.844;2022-07-22T03:07:59;10.48;;;4.55;;
20739;SDS011;10530;49.968;19.844;2022-07-22T03:13:02;11.27;;;4.70;;
20739;SDS011;10530;49.968;19.844;2022-07-22T03:18:05;10.70;;;4.75;;
20739;SDS011;10530;49.968;19.844;2022-07-22T03:23:08;12.60;;;5.10;;
20739;SDS011;10530;49.968;19.844;2022-07-22T03:28:12;10.70;;;5.15;;
20739;SDS011;10530;49.968;19.844;2022-07-22T03:33:18;12.30;;;5.32;;
20739;SDS011;10530;49.968;19.844;2022-07-22T03:38:21;9.93;;;4.97;;
20739;SDS011;10530;49.968;19.844;2022-07-22T03:43:25;14.25;;;5.18;;
20739;SDS011;10530;49.968;19.844;2022-07-22T03:48:27;13.63;;;6.10;;
20739;SDS011;10530;49.968;19.844;2022-07-22T03:53:32;14.55;;;5.50;;
20739;SDS011;10530;49.968;19.844;2022-07-22T03:58:36;12.32;;;5.80;;
20739;SDS011;10530;49.968;19.844;2022-07-22T04:03:39;12.30;;;6.00;;
20739;SDS011;10530;49.968;19.844;2022-07-22T04:09:01;11.70;;;5.60;;
20739;SDS011;10530;49.968;19.844;2022-07-22T04:14:06;11.17;;;5.33;;
20739;SDS011;10530;49.968;19.844;2022-07-22T04:19:09;13.15;;;5.90;;
20739;SDS011;10530;49.968;19.844;2022-07-22T04:24:25;11.00;;;5.18;;
20739;SDS011;10530;49.968;19.844;2022-07-22T04:29:29;11.97;;;5.73;;
20739;SDS011;10530;49.968;19.844;2022-07-22T04:34:32;12.27;;;5.70;;
20739;SDS011;10530;49.968;19.844;2022-07-22T04:39:36;13.30;;;5.17;;
20739;SDS011;10530;49.968;19.844;2022-07-22T04:44:40;10.02;;;5.20;;
20739;SDS011;10530;49.968;19.844;2022-07-22T04:49:43;11.57;;;4.82;;
20739;SDS011;10530;49.968;19.844;2022-07-22T04:54:47;10.90;;;4.97;;
20739;SDS011;10530;49.968;19.844;2022-07-22T04:59:52;14.30;;;4.90;;
20739;SDS011;10530;49.968;19.844;2022-07-22T05:04:55;12.00;;;5.60;;
20739;SDS011;10530;49.968;19.844;2022-07-22T05:10:02;10.95;;;4.80;;
20739;SDS011;10530;49.968;19.844;2022-07-22T05:15:07;9.80;;;4.88;;
20739;SDS011;10530;49.968;19.844;2022-07-22T05:20:10;13.67;;;6.17;;
20739;SDS011;10530;49.968;19.844;2022-07-22T05:25:14;10.77;;;5.50;;
20739;SDS011;10530;49.968;19.844;2022-07-22T05:30:18;11.73;;;5.83;;
20739;SDS011;10530;49.968;19.844;2022-07-22T05:35:25;12.07;;;5.72;;
20739;SDS011;10530;49.968;19.844;2022-07-22T05:40:28;11.07;;;5.30;;
20739;SDS011;10530;49.968;19.844;2022-07-22T05:45:31;14.03;;;6.20;;
20739;SDS011;10530;49.968;19.844;2022-07-22T05:50:35;14.25;;;5.70;;
20739;SDS011;10530;49.968;19.844;2022-07-22T05:55:38;10.20;;;4.97;;
20739;SDS011;10530;49.968;19.844;2022-07-22T06:00:41;12.57;;;5.57;;
20739;SDS011;10530;49.968;19.844;2022-07-22T06:05:45;11.93;;;5.90;;
20739;SDS011;10530;49.968;19.844;2022-07-22T06:10:48;11.30;;;5.90;;
20739;SDS011;10530;49.968;19.844;2022-07-22T06:15:52;11.57;;;6.00;;
20739;SDS011;10530;49.968;19.844;2022-07-22T06:20:55;12.90;;;6.20;;
20739;SDS011;10530;49.968;19.844;2022-07-22T06:25:59;12.35;;;6.50;;
20739;SDS011;10530;49.968;19.844;2022-07-22T06:31:05;13.45;;;6.88;;
20739;SDS011;10530;49.968;19.844;2022-07-22T06:36:08;16.97;;;9.00;;
20739;SDS011;10530;49.968;19.844;2022-07-22T06:41:12;14.60;;;7.03;;
20739;SDS011;10530;49.968;19.844;2022-07-22T06:46:27;15.03;;;7.00;;
20739;SDS011;10530;49.968;19.844;2022-07-22T06:51:30;12.93;;;6.57;;
20739;SDS011;10530;49.968;19.844;2022-07-22T06:56:33;13.80;;;6.75;;
20739;SDS011;10530;49.968;19.844;2022-07-22T07:01:36;15.90;;;7.13;;
20739;SDS011;10530;49.968;19.844;2022-07-22T07:06:39;15.18;;;7.03;;
20739;SDS011;10530;49.968;19.844;2022-07-22T07:11:50;13.97;;;7.13;;
20739;SDS011;10530;49.968;19.844;2022-07-22T07:17:13;13.38;;;7.07;;
20739;SDS011;10530;49.968;19.844;2022-07-22T07:22:17;15.77;;;6.80;;
20739;SDS011;10530;49.968;19.844;2022-07-22T07:27:20;14.27;;;7.40;;
20739;SDS011;10530;49.968;19.844;2022-07-22T07:32:28;13.85;;;7.60;;
20739;SDS011;10530;49.968;19.844;2022-07-22T07:37:31;13.60;;;7.27;;
20739;SDS011;10530;49.968;19.844;2022-07-22T07:42:34;12.60;;;6.95;;
20739;SDS011;10530;49.968;19.844;2022-07-22T07:47:46;13.05;;;7.32;;
20739;SDS011;10530;49.968;19.844;2022-07-22T07:52:50;12.13;;;6.60;;
20739;SDS011;10530;49.968;19.844;2022-07-22T07:57:56;15.20;;;7.75;;
20739;SDS011;10530;49.968;19.844;2022-07-22T08:03:00;12.67;;;7.97;;
20739;SDS011;10530;49.968;19.844;2022-07-22T08:08:09;13.40;;;7.97;;
20739;SDS011;10530;49.968;19.844;2022-07-22T08:13:17;14.55;;;7.45;;
20739;SDS011;10530;49.968;19.844;2022-07-22T08:18:52;11.07;;;6.93;;
20739;SDS011;10530;49.968;19.844;2022-07-22T08:23:56;14.27;;;7.18;;
20739;SDS011;10530;49.968;19.844;2022-07-22T08:29:01;13.53;;;7.13;;
20739;SDS011;10530;49.968;19.844;2022-07-22T08:34:05;12.35;;;7.03;;
20739;SDS011;10530;49.968;19.844;2022-07-22T08:39:08;12.38;;;6.85;;
20739;SDS011;10530;49.968;19.844;2022-07-22T08:44:12;14.63;;;7.23;;
20739;SDS011;10530;49.968;19.844;2022-07-22T08:49:15;13.40;;;7.35;;
20739;SDS011;10530;49.968;19.844;2022-07-22T08:54:31;14.00;;;7.60;;
20739;SDS011;10530;49.968;19.844;2022-07-22T08:59:48;21.95;;;7.65;;
20739;SDS011;10530;49.968;19.844;2022-07-22T09:04:59;14.82;;;8.15;;
20739;SDS011;10530;49.968;19.844;2022-07-22T09:10:30;13.70;;;8.10;;
20739;SDS011;10530;49.968;19.844;2022-07-22T09:15:55;11.30;;;8.18;;
20739;SDS011;10530;49.968;19.844;2022-07-22T09:21:20;14.40;;;7.93;;
20739;SDS011;10530;49.968;19.844;2022-07-22T09:26:42;14.80;;;8.35;;
20739;SDS011;10530;49.968;19.844;2022-07-22T09:32:09;14.98;;;8.00;;
20739;SDS011;10530;49.968;19.844;2022-07-22T09:37:35;16.23;;;8.17;;
20739;SDS011;10530;49.968;19.844;2022-07-22T09:42:59;15.55;;;8.40;;
20739;SDS011;10530;49.968;19.844;2022-07-22T09:48:04;14.63;;;8.10;;
20739;SDS011;10530;49.968;19.844;2022-07-22T09:53:26;13.52;;;8.60;;
20739;SDS011;10530;49.968;19.844;2022-07-22T09:58:38;15.52;;;8.48;;
20739;SDS011;10530;49.968;19.844;2022-07-22T10:04:14;13.60;;;8.13;;
20739;SDS011;10530;49.968;19.844;2022-07-22T10:09:22;16.50;;;9.55;;
20739;SDS011;10530;49.968;19.844;2022-07-22T10:14:27;14.63;;;9.53;;
20739;SDS011;10530;49.968;19.844;2022-07-22T10:19:34;16.50;;;9.25;;
20739;SDS011;10530;49.968;19.844;2022-07-22T10:24:58;16.08;;;9.70;;
20739;SDS011;10530;49.968;19.844;2022-07-22T10:30:03;16.00;;;9.40;;
20739;SDS011;10530;49.968;19.844;2022-07-22T10:35:19;18.67;;;9.68;;
20739;SDS011;10530;49.968;19.844;2022-07-22T10:40:28;16.67;;;9.43;;
20739;SDS011;10530;49.968;19.844;2022-07-22T10:45:35;16.60;;;9.07;;
20739;SDS011;10530;49.968;19.844;2022-07-22T10:50:39;17.52;;;9.65;;
20739;SDS011;10530;49.968;19.844;2022-07-22T10:56:02;15.10;;;8.97;;
20739;SDS011;10530;49.968;19.844;2022-07-22T11:01:12;17.90;;;9.57;;
20739;SDS011;10530;49.968;19.844;2022-07-22T11:06:30;19.33;;;10.23;;
20739;SDS011;10530;49.968;19.844;2022-07-22T11:11:38;14.02;;;9.00;;
20739;SDS011;10530;49.968;19.844;2022-07-22T11:16:49;13.82;;;8.95;;
20739;SDS011;10530;49.968;19.844;2022-07-22T11:21:56;15.00;;;8.33;;
20739;SDS011;10530;49.968;19.844;2022-07-22T11:27:14;14.60;;;8.35;;
20739;SDS011;10530;49.968;19.844;2022-07-22T11:32:19;15.10;;;8.93;;
20739;SDS011;10530;49.968;19.844;2022-07-22T11:37:30;14.57;;;9.13;;
20739;SDS011;10530;49.968;19.844;2022-07-22T11:42:32;17.90;;;9.23;;
20739;SDS011;10530;49.968;19.844;2022-07-22T11:47:35;13.73;;;8.67;;
20739;SDS011;10530;49.968;19.844;2022-07-22T11:52:38;14.85;;;9.07;;
20739;SDS011;10530;49.968;19.844;2022-07-22T11:57:47;16.27;;;9.57;;
20739;SDS011;10530;49.968;19.844;2022-07-22T12:02:50;20.85;;;9.30;;
20739;SDS011;10530;49.968;19.844;2022-07-22T12:07:53;14.02;;;8.48;;
20739;SDS011;10530;49.968;19.844;2022-07-22T12:12:57;13.90;;;8.53;;
20739;SDS011;10530;49.968;19.844;2022-07-22T12:18:20;14.07;;;9.13;;
20739;SDS011;10530;49.968;19.844;2022-07-22T12:23:25;14.50;;;8.80;;
20739;SDS011;10530;49.968;19.844;2022-07-22T12:28:29;14.98;;;9.75;;
20739;SDS011;10530;49.968;19.844;2022-07-22T12:33:32;14.05;;;8.85;;
20739;SDS011;10530;49.968;19.844;2022-07-22T12:38:35;15.87;;;9.33;;
20739;SDS011;10530;49.968;19.844;2022-07-22T12:43:38;16.27;;;9.40;;
20739;SDS011;10530;49.968;19.844;2022-07-22T12:48:48;14.73;;;9.20;;
20739;SDS011;10530;49.968;19.844;2022-07-22T12:53:54;15.30;;;8.35;;
20739;SDS011;10530;49.968;19.844;2022-07-22T12:58:58;13.57;;;8.13;;
20739;SDS011;10530;49.968;19.844;2022-07-22T13:04:01;14.67;;;6.90;;
20739;SDS011;10530;49.968;19.844;2022-07-22T13:09:05;10.98;;;7.25;;
20739;SDS011;10530;49.968;19.844;2022-07-22T13:14:16;14.67;;;8.30;;
20739;SDS011;10530;49.968;19.844;2022-07-22T13:19:19;15.75;;;8.48;;
20739;SDS011;10530;49.968;19.844;2022-07-22T13:24:22;15.02;;;8.60;;
20739;SDS011;10530;49.968;19.844;2022-07-22T13:29:25;13.73;;;8.17;;
20739;SDS011;10530;49.968;19.844;2022-07-22T13:34:28;11.13;;;7.57;;
20739;SDS011;10530;49.968;19.844;2022-07-22T13:39:31;12.30;;;7.67;;
20739;SDS011;10530;49.968;19.844;2022-07-22T13:44:35;11.80;;;7.75;;
20739;SDS011;10530;49.968;19.844;2022-07-22T13:49:38;11.80;;;7.80;;
20739;SDS011;10530;49.968;19.844;2022-07-22T13:54:41;12.67;;;7.70;;
20739;SDS011;10530;49.968;19.844;2022-07-22T13:59:49;13.80;;;8.23;;
20739;SDS011;10530;49.968;19.844;2022-07-22T14:04:52;12.13;;;8.10;;
20739;SDS011;10530;49.968;19.844;2022-07-22T14:09:55;13.68;;;8.13;;
20739;SDS011;10530;49.968;19.844;2022-07-22T14:14:58;17.27;;;8.95;;
20739;SDS011;10530;49.968;19.844;2022-07-22T14:20:05;15.47;;;8.13;;
20739;SDS011;10530;49.968;19.844;2022-07-22T14:25:09;12.02;;;7.40;;
20739;SDS011;10530;49.968;19.844;2022-07-22T14:30:12;11.70;;;8.13;;
20739;SDS011;10530;49.968;19.844;2022-07-22T14:41:08;13.02;;;7.00;;
20739;SDS011;10530;49.968;19.844;2022-07-22T14:46:11;11.37;;;7.13;;
20739;SDS011;10530;49.968;19.844;2022-07-22T14:51:14;11.70;;;7.20;;
20739;SDS011;10530;49.968;19.844;2022-07-22T14:56:17;10.70;;;7.10;;
20739;SDS011;10530;49.968;19.844;2022-07-22T15:01:20;12.30;;;7.35;;
20739;SDS011;10530;49.968;19.844;2022-07-22T15:06:28;12.25;;;6.90;;
20739;SDS011;10530;49.968;19.844;2022-07-22T15:11:31;10.97;;;7.50;;
20739;SDS011;10530;49.968;19.844;2022-07-22T15:16:34;13.13;;;7.60;;
20739;SDS011;10530;49.968;19.844;2022-07-22T15:21:37;10.63;;;6.73;;
20739;SDS011;10530;49.968;19.844;2022-07-22T15:26:40;12.57;;;6.80;;
20739;SDS011;10530;49.968;19.844;2022-07-22T15:31:43;10.25;;;6.20;;
20739;SDS011;10530;49.968;19.844;2022-07-22T15:36:46;10.83;;;6.40;;
20739;SDS011;10530;49.968;19.844;2022-07-22T15:41:49;11.90;;;6.68;;
20739;SDS011;10530;49.968;19.844;2022-07-22T15:46:52;9.77;;;6.40;;
20739;SDS011;10530;49.968;19.844;2022-07-22T15:51:56;10.45;;;7.03;;
20739;SDS011;10530;49.968;19.844;2022-07-22T15:56:59;12.45;;;6.97;;
20739;SDS011;10530;49.968;19.844;2022-07-22T16:02:27;11.70;;;6.80;;
20739;SDS011;10530;49.968;19.844;2022-07-22T16:07:30;12.07;;;6.82;;
20739;SDS011;10530;49.968;19.844;2022-07-22T16:12:34;11.83;;;7.03;;
20739;SDS011;10530;49.968;19.844;2022-07-22T16:17:37;11.63;;;6.70;;
20739;SDS011;10530;49.968;19.844;2022-07-22T16:22:40;10.27;;;6.63;;
20739;SDS011;10530;49.968;19.844;2022-07-22T16:27:43;11.13;;;6.57;;
20739;SDS011;10530;49.968;19.844;2022-07-22T16:32:46;9.77;;;6.57;;
20739;SDS011;10530;49.968;19.844;2022-07-22T16:37:56;12.77;;;6.50;;
20739;SDS011;10530;49.968;19.844;2022-07-22T16:43:03;9.77;;;6.20;;
20739;SDS011;10530;49.968;19.844;2022-07-22T16:48:06;12.80;;;6.75;;
20739;SDS011;10530;49.968;19.844;2022-07-22T16:53:09;10.47;;;6.60;;
20739;SDS011;10530;49.968;19.844;2022-07-22T16:58:12;11.95;;;6.95;;
20739;SDS011;10530;49.968;19.844;2022-07-22T17:03:15;10.10;;;6.93;;
20739;SDS011;10530;49.968;19.844;2022-07-22T17:08:19;11.32;;;6.82;;
20739;SDS011;10530;49.968;19.844;2022-07-22T17:13:22;11.75;;;6.93;;
20739;SDS011;10530;49.968;19.844;2022-07-22T17:18:30;13.33;;;6.83;;
20739;SDS011;10530;49.968;19.844;2022-07-22T17:23:34;11.90;;;7.68;;
20739;SDS011;10530;49.968;19.844;2022-07-22T17:28:37;12.67;;;7.00;;
20739;SDS011;10530;49.968;19.844;2022-07-22T17:33:41;11.45;;;6.93;;
20739;SDS011;10530;49.968;19.844;2022-07-22T17:38:44;11.77;;;6.90;;
20739;SDS011;10530;49.968;19.844;2022-07-22T17:43:48;11.93;;;6.80;;
20739;SDS011;10530;49.968;19.844;2022-07-22T17:48:51;12.68;;;7.72;;
20739;SDS011;10530;49.968;19.844;2022-07-22T17:53:55;11.10;;;7.13;;
20739;SDS011;10530;49.968;19.844;2022-07-22T17:59:01;11.23;;;6.93;;
20739;SDS011;10530;49.968;19.844;2022-07-22T18:04:05;12.27;;;6.85;;
20739;SDS011;10530;49.968;19.844;2022-07-22T18:09:08;14.33;;;7.03;;
20739;SDS011;10530;49.968;19.844;2022-07-22T18:14:11;12.18;;;7.07;;
20739;SDS011;10530;49.968;19.844;2022-07-22T18:19:14;15.43;;;7.37;;
20739;SDS011;10530;49.968;19.844;2022-07-22T18:24:17;13.75;;;7.15;;
20739;SDS011;10530;49.968;19.844;2022-07-22T18:29:20;14.45;;;8.07;;
20739;SDS011;10530;49.968;19.844;2022-07-22T18:34:23;15.37;;;8.13;;
20739;SDS011;10530;49.968;19.844;2022-07-22T18:39:27;17.52;;;9.13;;
20739;SDS011;10530;49.968;19.844;2022-07-22T18:44:30;15.40;;;8.27;;
20739;SDS011;10530;49.968;19.844;2022-07-22T18:49:32;12.65;;;7.30;;
20739;SDS011;10530;49.968;19.844;2022-07-22T18:54:35;14.77;;;7.50;;
20739;SDS011;10530;49.968;19.844;2022-07-22T18:59:38;12.47;;;6.60;;
20739;SDS011;10530;49.968;19.844;2022-07-22T19:04:41;13.63;;;6.47;;
20739;SDS011;10530;49.968;19.844;2022-07-22T19:09:45;14.87;;;6.17;;
20739;SDS011;10530;49.968;19.844;2022-07-22T19:14:48;12.07;;;6.47;;
20739;SDS011;10530;49.968;19.844;2022-07-22T19:19:51;12.95;;;6.88;;
20739;SDS011;10530;49.968;19.844;2022-07-22T19:24:54;9.07;;;5.57;;
20739;SDS011;10530;49.968;19.844;2022-07-22T19:29:56;12.52;;;5.88;;
20739;SDS011;10530;49.968;19.844;2022-07-22T19:34:59;10.53;;;6.37;;
20739;SDS011;10530;49.968;19.844;2022-07-22T19:40:02;11.60;;;6.05;;
20739;SDS011;10530;49.968;19.844;2022-07-22T19:45:05;15.25;;;7.72;;
20739;SDS011;10530;49.968;19.844;2022-07-22T19:50:08;17.13;;;6.60;;
20739;SDS011;10530;49.968;19.844;2022-07-22T19:55:12;16.27;;;7.10;;
20739;SDS011;10530;49.968;19.844;2022-07-22T20:00:15;12.67;;;6.50;;
20739;SDS011;10530;49.968;19.844;2022-07-22T20:05:18;15.85;;;7.30;;
20739;SDS011;10530;49.968;19.844;2022-07-22T20:10:21;14.55;;;7.57;;
20739;SDS011;10530;49.968;19.844;2022-07-22T20:15:24;13.17;;;7.47;;
20739;SDS011;10530;49.968;19.844;2022-07-22T20:20:27;11.55;;;7.05;;
20739;SDS011;10530;49.968;19.844;2022-07-22T20:25:33;14.17;;;7.13;;
20739;SDS011;10530;49.968;19.844;2022-07-22T20:30:36;13.63;;;6.97;;
20739;SDS011;10530;49.968;19.844;2022-07-22T20:35:38;16.75;;;6.95;;
20739;SDS011;10530;49.968;19.844;2022-07-22T20:40:41;14.37;;;6.73;;
20739;SDS011;10530;49.968;19.844;2022-07-22T20:45:44;13.02;;;6.85;;
20739;SDS011;10530;49.968;19.844;2022-07-22T20:50:47;12.83;;;6.73;;
20739;SDS011;10530;49.968;19.844;2022-07-22T20:55:50;14.60;;;7.30;;
20739;SDS011;10530;49.968;19.844;2022-07-22T21:00:53;12.13;;;6.57;;
20739;SDS011;10530;49.968;19.844;2022-07-22T21:05:56;15.53;;;7.40;;
20739;SDS011;10530;49.968;19.844;2022-07-22T21:10:59;12.13;;;7.00;;
20739;SDS011;10530;49.968;19.844;2022-07-22T21:16:03;13.37;;;6.80;;
20739;SDS011;10530;49.968;19.844;2022-07-22T21:21:06;12.98;;;6.53;;
20739;SDS011;10530;49.968;19.844;2022-07-22T21:26:09;13.27;;;6.10;;
20739;SDS011;10530;49.968;19.844;2022-07-22T21:31:12;12.33;;;6.27;;
20739;SDS011;10530;49.968;19.844;2022-07-22T21:36:15;12.15;;;6.43;;
20739;SDS011;10530;49.968;19.844;2022-07-22T21:41:20;14.00;;;6.23;;
20739;SDS011;10530;49.968;19.844;2022-07-22T21:46:22;13.55;;;6.32;;
20739;SDS011;10530;49.968;19.844;2022-07-22T21:51:25;14.18;;;5.95;;
20739;SDS011;10530;49.968;19.844;2022-07-22T21:56:28;10.47;;;5.87;;
20739;SDS011;10530;49.968;19.844;2022-07-22T22:01:49;12.38;;;6.60;;
20739;SDS011;10530;49.968;19.844;2022-07-22T22:06:53;13.93;;;6.07;;
20739;SDS011;10530;49.968;19.844;2022-07-22T22:11:56;11.43;;;6.20;;
20739;SDS011;10530;49.968;19.844;2022-07-22T22:16:59;11.93;;;5.72;;
20739;SDS011;10530;49.968;19.844;2022-07-22T22:22:08;10.03;;;5.73;;
20739;SDS011;10530;49.968;19.844;2022-07-22T22:27:11;12.05;;;6.25;;
20739;SDS011;10530;49.968;19.844;2022-07-22T22:32:14;10.77;;;5.57;;
20739;SDS011;10530;49.968;19.844;2022-07-22T22:37:16;10.65;;;5.97;;
20739;SDS011;10530;49.968;19.844;2022-07-22T22:42:20;12.30;;;6.18;;
20739;SDS011;10530;49.968;19.844;2022-07-22T22:47:22;11.97;;;6.00;;
20739;SDS011;10530;49.968;19.844;2022-07-22T22:52:25;10.80;;;5.95;;
20739;SDS011;10530;49.968;19.844;2022-07-22T22:57:28;11.50;;;6.40;;
20739;SDS011;10530;49.968;19.844;2022-07-22T23:02:32;11.73;;;6.25;;
20739;SDS011;10530;49.968;19.844;2022-07-22T23:07:35;12.55;;;6.20;;
20739;SDS011;10530;49.968;19.844;2022-07-22T23:12:39;12.33;;;6.60;;
20739;SDS011;10530;49.968;19.844;2022-07-22T23:17:41;14.88;;;7.05;;
20739;SDS011;10530;49.968;19.844;2022-07-22T23:22:44;15.10;;;6.97;;
20739;SDS011;10530;49.968;19.844;2022-07-22T23:27:47;13.70;;;7.78;;
20739;SDS011;10530;49.968;19.844;2022-07-22T23:32:50;14.18;;;7.45;;
20739;SDS011;10530;49.968;19.844;2022-07-22T23:37:53;17.87;;;7.50;;
20739;SDS011;10530;49.968;19.844;2022-07-22T23:42:56;15.27;;;7.97;;
20739;SDS011;10530;49.968;19.844;2022-07-22T23:47:59;15.20;;;8.50;;
20739;SDS011;10530;49.968;19.844;2022-07-22T23:53:02;15.77;;;8.63;;
20739;SDS011;10530;49.968;19.844;2022-07-22T23:58:05;12.95;;;7.28;;
